Time;durP1;ratioP1;P1;durP2;ratioP2;P2;SDS_P1;SDS_P2;PMS_P1;PMS_P2;Temp;Humidity;BMP_temperature;BMP_pressure;BME280_temperature;BME280_humidity;BME280_pressure;Samples;Min_cycle;Max_cycle;Signal;HPM_P1;HPM_P2
2021/11/15 00:00:12;;;;;;;74.13;32.60;;;;;;;;;;5011373;28;1044705;-68
2021/11/15 00:02:37;;;;;;;69.03;30.67;;;;;;;;;;5043758;28;20460;-69
2021/11/15 00:05:02;;;;;;;70.30;30.33;;;;;;;;;;5047742;28;20025;-69
2021/11/15 00:07:27;;;;;;;67.68;29.27;;;;;;;;;;5047927;28;20043;-69
2021/11/15 00:09:53;;;;;;;72.22;32.83;;;;;;;;;;5046476;28;20147;-69
2021/11/15 00:12:18;;;;;;;69.50;30.23;;;;;;;;;;5044026;28;20036;-68
2021/11/15 00:14:43;;;;;;;68.35;30.23;;;;;;;;;;5046309;28;20468;-68
2021/11/15 00:17:08;;;;;;;68.32;30.15;;;;;;;;;;5047699;28;20431;-68
2021/11/15 00:19:33;;;;;;;66.47;30.50;;;;;;;;;;5041103;28;20018;-69
2021/11/15 00:21:59;;;;;;;67.60;30.25;;;;;;;;;;5040881;28;20100;-68
2021/11/15 00:24:24;;;;;;;62.58;29.33;;;;;;;;;;5046708;28;20163;-68
2021/11/15 00:26:49;;;;;;;67.28;30.05;;;;;;;;;;5045604;28;20025;-69
2021/11/15 00:29:15;;;;;;;65.25;29.73;;;;;;;;;;5045770;28;20024;-69
2021/11/15 00:31:40;;;;;;;68.22;30.20;;;;;;;;;;5046893;28;20024;-68
2021/11/15 00:34:05;;;;;;;68.97;29.77;;;;;;;;;;5047175;28;20024;-68
2021/11/15 00:36:30;;;;;;;67.38;28.30;;;;;;;;;;5043526;28;20075;-68
2021/11/15 00:38:56;;;;;;;69.10;30.77;;;;;;;;;;5041976;28;20048;-69
2021/11/15 00:41:22;;;;;;;65.70;29.55;;;;;;;;;;5047028;28;20499;-68
2021/11/15 00:43:47;;;;;;;59.55;28.85;;;;;;;;;;5045972;28;20078;-70
2021/11/15 00:46:12;;;;;;;65.78;30.58;;;;;;;;;;5041358;28;20032;-69
2021/11/15 00:48:37;;;;;;;65.60;30.13;;;;;;;;;;5040435;28;20420;-68
2021/11/15 00:51:02;;;;;;;63.83;30.08;;;;;;;;;;5045930;28;21021;-69
2021/11/15 00:53:28;;;;;;;66.53;29.25;;;;;;;;;;5047184;28;20508;-68
2021/11/15 00:55:53;;;;;;;65.30;29.10;;;;;;;;;;5040479;28;20025;-68
2021/11/15 00:58:19;;;;;;;71.13;30.98;;;;;;;;;;5044536;28;20040;-68
2021/11/15 01:00:44;;;;;;;67.13;28.30;;;;;;;;;;5044046;28;20056;-69
2021/11/15 01:03:10;;;;;;;66.53;29.35;;;;;;;;;;5048475;28;20039;-69
2021/11/15 01:05:37;;;;;;;62.42;28.73;;;;;;;;;;5042611;28;20376;-69
2021/11/15 01:08:04;;;;;;;56.50;26.98;;;;;;;;;;5049779;28;20033;-68
2021/11/15 01:10:29;;;;;;;57.67;26.95;;;;;;;;;;5045851;28;20030;-69
2021/11/15 01:12:55;;;;;;;54.50;24.90;;;;;;;;;;5046978;28;20357;-68
2021/11/15 01:15:22;;;;;;;57.00;25.52;;;;;;;;;;5046619;28;20101;-68
2021/11/15 01:17:48;;;;;;;57.67;26.35;;;;;;;;;;5049859;28;20405;-70
2021/11/15 01:20:14;;;;;;;58.72;27.38;;;;;;;;;;5042767;28;20030;-69
2021/11/15 01:22:39;;;;;;;59.95;26.35;;;;;;;;;;5050968;28;20029;-69
2021/11/15 01:25:05;;;;;;;67.53;29.52;;;;;;;;;;5049039;28;20370;-69
2021/11/15 01:27:30;;;;;;;64.57;28.48;;;;;;;;;;5049776;28;20033;-68
2021/11/15 01:29:56;;;;;;;64.80;29.73;;;;;;;;;;5046359;28;20064;-69
2021/11/15 01:32:21;;;;;;;66.00;29.75;;;;;;;;;;5045042;28;20033;-68
2021/11/15 01:34:46;;;;;;;71.25;29.48;;;;;;;;;;5043542;28;20029;-69
2021/11/15 01:37:12;;;;;;;70.25;30.70;;;;;;;;;;5041692;28;20073;-68
2021/11/15 01:39:37;;;;;;;71.70;29.30;;;;;;;;;;5049228;28;20112;-69
2021/11/15 01:42:03;;;;;;;68.88;27.98;;;;;;;;;;5043095;28;20388;-69
2021/11/15 01:44:28;;;;;;;67.88;29.75;;;;;;;;;;5045119;28;20112;-68
2021/11/15 01:46:53;;;;;;;59.65;27.90;;;;;;;;;;5047905;28;20060;-68
2021/11/15 01:49:19;;;;;;;64.38;28.10;;;;;;;;;;5047938;28;20033;-68
2021/11/15 01:51:44;;;;;;;61.25;26.17;;;;;;;;;;5048144;28;20457;-69
2021/11/15 01:54:09;;;;;;;58.75;26.40;;;;;;;;;;5043635;28;20140;-68
2021/11/15 01:56:34;;;;;;;59.40;25.77;;;;;;;;;;5049105;28;20036;-68
2021/11/15 01:59:01;;;;;;;64.72;27.40;;;;;;;;;;5048960;28;20067;-68
2021/11/15 02:01:27;;;;;;;61.50;26.50;;;;;;;;;;5050423;28;20345;-68
2021/11/15 02:03:52;;;;;;;60.75;27.75;;;;;;;;;;5048809;28;20120;-68
2021/11/15 02:06:17;;;;;;;60.28;26.70;;;;;;;;;;5049415;28;20033;-69
2021/11/15 02:08:43;;;;;;;57.90;25.65;;;;;;;;;;5049134;28;20021;-69
2021/11/15 02:11:08;;;;;;;57.60;26.00;;;;;;;;;;5049431;28;20041;-68
2021/11/15 02:13:33;;;;;;;54.60;25.70;;;;;;;;;;5047612;28;20037;-69
2021/11/15 02:15:58;;;;;;;55.22;24.17;;;;;;;;;;5048518;28;20407;-70
2021/11/15 02:18:24;;;;;;;55.13;25.45;;;;;;;;;;5047756;28;20582;-69
2021/11/15 02:20:52;;;;;;;53.92;24.38;;;;;;;;;;5046738;28;20025;-69
2021/11/15 02:23:17;;;;;;;57.33;24.52;;;;;;;;;;5048475;28;20115;-70
2021/11/15 02:25:44;;;;;;;57.20;24.40;;;;;;;;;;5047959;28;20478;-68
2021/11/15 02:28:10;;;;;;;53.38;22.90;;;;;;;;;;5045560;28;20024;-69
2021/11/15 02:30:35;;;;;;;55.97;24.35;;;;;;;;;;5048932;28;20040;-69
2021/11/15 02:33:01;;;;;;;49.13;22.83;;;;;;;;;;5044824;28;20556;-69
2021/11/15 02:35:27;;;;;;;53.03;22.98;;;;;;;;;;5044664;28;20142;-69
2021/11/15 02:37:52;;;;;;;52.15;23.27;;;;;;;;;;5048202;28;20033;-68
2021/11/15 02:40:20;;;;;;;47.83;23.02;;;;;;;;;;5043435;28;20469;-69
2021/11/15 02:42:47;;;;;;;46.83;22.38;;;;;;;;;;5049106;28;20408;-69
2021/11/15 02:45:12;;;;;;;47.72;21.90;;;;;;;;;;5047650;28;20112;-67
2021/11/15 02:47:38;;;;;;;49.60;21.95;;;;;;;;;;5049455;28;20564;-68
2021/11/15 02:50:04;;;;;;;50.08;21.92;;;;;;;;;;5047859;28;20453;-69
2021/11/15 02:52:29;;;;;;;48.05;22.10;;;;;;;;;;5045523;28;20025;-69
2021/11/15 02:54:57;;;;;;;51.90;24.00;;;;;;;;;;5048412;28;20039;-69
2021/11/15 02:57:23;;;;;;;53.83;23.08;;;;;;;;;;5047133;28;20040;-69
2021/11/15 02:59:48;;;;;;;59.42;25.95;;;;;;;;;;5046827;28;20067;-69
2021/11/15 03:02:14;;;;;;;56.47;25.33;;;;;;;;;;5048083;28;20120;-68
2021/11/15 03:04:40;;;;;;;51.83;23.48;;;;;;;;;;5042463;28;20104;-69
2021/11/15 03:07:05;;;;;;;53.33;23.35;;;;;;;;;;5042341;28;20452;-69
2021/11/15 03:09:31;;;;;;;56.08;23.77;;;;;;;;;;5041423;28;20090;-68
2021/11/15 03:11:56;;;;;;;54.47;23.88;;;;;;;;;;5039359;28;20041;-68
2021/11/15 03:14:21;;;;;;;55.95;23.60;;;;;;;;;;5045999;28;20021;-68
2021/11/15 03:16:47;;;;;;;54.67;23.45;;;;;;;;;;5047575;28;20330;-68
2021/11/15 03:19:12;;;;;;;55.47;23.42;;;;;;;;;;5047673;28;20869;-69
2021/11/15 03:21:37;;;;;;;59.60;24.88;;;;;;;;;;5045265;28;20024;-69
2021/11/15 03:24:02;;;;;;;50.53;22.52;;;;;;;;;;5047255;28;20106;-68
2021/11/15 03:26:28;;;;;;;57.80;24.17;;;;;;;;;;5042852;28;20120;-69
2021/11/15 03:28:55;;;;;;;62.45;25.17;;;;;;;;;;5047840;28;20112;-69
2021/11/15 03:31:22;;;;;;;56.30;24.40;;;;;;;;;;5046717;28;20063;-68
2021/11/15 03:33:48;;;;;;;62.60;25.02;;;;;;;;;;5047670;28;20150;-68
2021/11/15 03:36:13;;;;;;;60.22;25.63;;;;;;;;;;5043013;28;20459;-68
2021/11/15 03:38:40;;;;;;;55.90;23.15;;;;;;;;;;5047253;28;20045;-68
2021/11/15 03:41:05;;;;;;;65.60;25.10;;;;;;;;;;5046914;28;20052;-68
2021/11/15 03:43:30;;;;;;;66.97;26.58;;;;;;;;;;5047834;28;20637;-67
2021/11/15 03:45:56;;;;;;;67.55;24.80;;;;;;;;;;5039932;28;20025;-68
2021/11/15 03:48:21;;;;;;;61.78;24.50;;;;;;;;;;5047882;28;20044;-68
2021/11/15 03:50:47;;;;;;;61.30;24.38;;;;;;;;;;5047731;28;20047;-69
2021/11/15 03:53:13;;;;;;;59.80;24.90;;;;;;;;;;5048246;28;20025;-68
2021/11/15 03:55:38;;;;;;;58.53;24.58;;;;;;;;;;5046455;28;20569;-69
2021/11/15 03:58:04;;;;;;;63.67;24.73;;;;;;;;;;5044090;28;20131;-68
2021/11/15 04:00:31;;;;;;;63.63;25.58;;;;;;;;;;5044402;28;20052;-68
2021/11/15 04:03:01;;;;;;;55.70;24.73;;;;;;;;;;5046223;28;20033;-69
2021/11/15 04:05:28;;;;;;;;;;;;;;;;;;5046352;28;20158;-68
2021/11/15 04:07:53;;;;;;;60.92;22.25;;;;;;;;;;5046592;28;20457;-69
2021/11/15 04:10:23;;;;;;;60.70;23.50;;;;;;;;;;5047955;28;20037;-68
2021/11/15 04:12:48;;;;;;;;;;;;;;;;;;5047298;28;20025;-68
2021/11/15 04:15:14;;;;;;;57.65;22.23;;;;;;;;;;5044361;28;19909;-69
2021/11/15 04:17:40;;;;;;;53.45;21.30;;;;;;;;;;5044563;28;20664;-69
2021/11/15 04:20:06;;;;;;;54.65;22.15;;;;;;;;;;5041856;28;20039;-69
2021/11/15 04:22:31;;;;;;;51.88;21.77;;;;;;;;;;5047206;28;20120;-69
2021/11/15 04:24:56;;;;;;;55.15;22.80;;;;;;;;;;5046520;28;20172;-69
2021/11/15 04:27:22;;;;;;;55.45;22.20;;;;;;;;;;5047007;28;20060;-67
2021/11/15 04:29:47;;;;;;;55.65;22.20;;;;;;;;;;5042108;28;20021;-68
2021/11/15 04:32:12;;;;;;;55.40;22.52;;;;;;;;;;5048052;28;20106;-69
2021/11/15 04:34:37;;;;;;;50.08;21.35;;;;;;;;;;5048855;28;20421;-68
2021/11/15 04:37:03;;;;;;;53.40;21.30;;;;;;;;;;5051735;28;20021;-68
2021/11/15 04:39:28;;;;;;;53.50;21.17;;;;;;;;;;5045985;28;20431;-70
2021/11/15 04:41:54;;;;;;;54.22;21.85;;;;;;;;;;5050965;28;20060;-69
2021/11/15 04:44:19;;;;;;;49.00;21.08;;;;;;;;;;5050654;28;20488;-68
2021/11/15 04:46:44;;;;;;;55.10;22.00;;;;;;;;;;5051157;28;20041;-69
2021/11/15 04:49:09;;;;;;;50.47;20.73;;;;;;;;;;5047743;28;20040;-68
2021/11/15 04:51:35;;;;;;;54.00;21.55;;;;;;;;;;5046039;28;20033;-68
2021/11/15 04:54:01;;;;;;;54.25;21.60;;;;;;;;;;5046398;28;20025;-69
2021/11/15 04:56:26;;;;;;;50.45;20.85;;;;;;;;;;5050627;28;20120;-68
2021/11/15 04:58:51;;;;;;;56.20;22.38;;;;;;;;;;5044878;28;20500;-69
2021/11/15 05:01:16;;;;;;;55.65;21.70;;;;;;;;;;5054423;28;20044;-69
2021/11/15 05:03:42;;;;;;;61.78;23.48;;;;;;;;;;5046668;28;20460;-68
2021/11/15 05:06:07;;;;;;;54.00;22.42;;;;;;;;;;5049782;28;20362;-68
2021/11/15 05:08:33;;;;;;;51.85;21.45;;;;;;;;;;5048826;28;20548;-69
2021/11/15 05:10:58;;;;;;;58.47;22.30;;;;;;;;;;5048501;28;20039;-69
2021/11/15 05:13:23;;;;;;;58.72;23.00;;;;;;;;;;5050028;28;20025;-68
2021/11/15 05:15:49;;;;;;;61.33;22.55;;;;;;;;;;5044807;28;20797;-69
2021/11/15 05:18:14;;;;;;;57.88;22.05;;;;;;;;;;5050484;28;20099;-69
2021/11/15 05:20:39;;;;;;;59.92;22.13;;;;;;;;;;5046794;28;20387;-69
2021/11/15 05:23:04;;;;;;;65.20;22.42;;;;;;;;;;5042122;28;20033;-69
2021/11/15 05:25:30;;;;;;;52.15;20.75;;;;;;;;;;5049127;28;20490;-69
2021/11/15 05:27:55;;;;;;;59.65;22.13;;;;;;;;;;5048914;28;20114;-69
2021/11/15 05:30:21;;;;;;;49.63;19.50;;;;;;;;;;5045439;28;20341;-68
2021/11/15 05:32:47;;;;;;;52.83;21.10;;;;;;;;;;5045825;28;20040;-69
2021/11/15 05:35:13;;;;;;;52.40;20.88;;;;;;;;;;5046713;28;20369;-69
2021/11/15 05:37:38;;;;;;;55.63;21.95;;;;;;;;;;5048822;28;20119;-71
2021/11/15 05:40:04;;;;;;;57.03;21.88;;;;;;;;;;5046495;28;20074;-70
2021/11/15 05:42:29;;;;;;;49.13;19.55;;;;;;;;;;5049419;28;20159;-68
2021/11/15 05:44:55;;;;;;;52.60;19.38;;;;;;;;;;5049529;28;20132;-69
2021/11/15 05:47:20;;;;;;;53.50;21.10;;;;;;;;;;5050730;28;20086;-68
2021/11/15 05:49:45;;;;;;;51.42;20.52;;;;;;;;;;5048905;28;20029;-69
2021/11/15 05:52:10;;;;;;;56.05;20.88;;;;;;;;;;5045088;28;20047;-69
2021/11/15 05:54:36;;;;;;;56.05;20.63;;;;;;;;;;5046927;28;20052;-63
2021/11/15 05:57:01;;;;;;;51.92;19.88;;;;;;;;;;5049901;28;20060;-64
2021/11/15 05:59:28;;;;;;;48.40;19.58;;;;;;;;;;5040695;28;20053;-64
2021/11/15 06:01:53;;;;;;;51.78;20.27;;;;;;;;;;5044852;28;20020;-63
2021/11/15 06:04:18;;;;;;;48.35;20.75;;;;;;;;;;5049884;28;20059;-63
2021/11/15 06:06:44;;;;;;;50.08;21.08;;;;;;;;;;5049096;28;20033;-63
2021/11/15 06:09:10;;;;;;;52.90;19.40;;;;;;;;;;5047913;28;20029;-62
2021/11/15 06:11:35;;;;;;;50.13;19.38;;;;;;;;;;5048447;28;20032;-63
2021/11/15 06:14:00;;;;;;;47.70;18.52;;;;;;;;;;5049921;28;20029;-63
2021/11/15 06:16:25;;;;;;;48.55;19.63;;;;;;;;;;5050211;28;20493;-63
2021/11/15 06:18:50;;;;;;;51.30;20.88;;;;;;;;;;5050246;28;20094;-63
2021/11/15 06:21:16;;;;;;;55.03;21.88;;;;;;;;;;5047788;28;20028;-64
2021/11/15 06:23:41;;;;;;;54.05;21.38;;;;;;;;;;5044569;28;20028;-64
2021/11/15 06:26:07;;;;;;;56.22;20.85;;;;;;;;;;5041377;28;20032;-63
2021/11/15 06:28:33;;;;;;;58.45;20.60;;;;;;;;;;5049322;28;20123;-63
2021/11/15 06:30:58;;;;;;;56.35;21.80;;;;;;;;;;5049127;28;20067;-64
2021/11/15 06:33:23;;;;;;;59.45;22.42;;;;;;;;;;5045133;28;20033;-65
2021/11/15 06:35:49;;;;;;;54.28;20.85;;;;;;;;;;5049205;28;20029;-64
2021/11/15 06:38:14;;;;;;;55.50;21.13;;;;;;;;;;5049609;28;20041;-63
2021/11/15 06:40:40;;;;;;;51.67;21.85;;;;;;;;;;5049361;28;20025;-63
2021/11/15 06:43:05;;;;;;;55.45;22.20;;;;;;;;;;5047674;28;20029;-63
2021/11/15 06:45:31;;;;;;;54.38;22.48;;;;;;;;;;5049556;28;20013;-63
2021/11/15 06:47:57;;;;;;;48.88;21.05;;;;;;;;;;5048908;28;20044;-64
2021/11/15 06:50:22;;;;;;;50.53;19.58;;;;;;;;;;5049087;28;20381;-62
2021/11/15 06:52:48;;;;;;;47.60;20.08;;;;;;;;;;5049233;28;20029;-63
2021/11/15 06:55:14;;;;;;;50.38;20.65;;;;;;;;;;5048388;28;20059;-63
2021/11/15 06:57:40;;;;;;;47.00;19.48;;;;;;;;;;5049142;28;20040;-63
2021/11/15 07:00:07;;;;;;;46.53;19.83;;;;;;;;;;5042437;28;20556;-64
2021/11/15 07:02:33;;;;;;;43.72;18.27;;;;;;;;;;5044127;28;20465;-63
2021/11/15 07:04:58;;;;;;;39.00;17.33;;;;;;;;;;5042841;28;20025;-64
2021/11/15 07:07:23;;;;;;;34.80;16.73;;;;;;;;;;5043475;28;20056;-64
2021/11/15 07:09:49;;;;;;;32.45;15.30;;;;;;;;;;5047600;28;20549;-63
2021/11/15 07:12:14;;;;;;;37.92;16.15;;;;;;;;;;5048968;28;20028;-63
2021/11/15 07:14:39;;;;;;;42.10;19.27;;;;;;;;;;5040515;28;20483;-64
2021/11/15 07:17:05;;;;;;;42.83;19.13;;;;;;;;;;5045500;28;20068;-63
2021/11/15 07:19:30;;;;;;;43.53;18.95;;;;;;;;;;5047977;28;20067;-65
2021/11/15 07:21:55;;;;;;;44.17;20.05;;;;;;;;;;5048017;28;20094;-64
2021/11/15 07:24:20;;;;;;;43.50;18.95;;;;;;;;;;5045602;28;20036;-63
2021/11/15 07:26:45;;;;;;;37.25;18.17;;;;;;;;;;5048296;28;20035;-66
2021/11/15 07:29:11;;;;;;;38.00;18.52;;;;;;;;;;5048756;28;20021;-64
2021/11/15 07:31:38;;;;;;;39.70;18.08;;;;;;;;;;5048933;28;20021;-65
2021/11/15 07:34:03;;;;;;;47.15;20.52;;;;;;;;;;5049070;28;20506;-65
2021/11/15 07:36:31;;;;;;;44.60;19.10;;;;;;;;;;5045380;28;20043;-65
2021/11/15 07:38:56;;;;;;;43.80;19.77;;;;;;;;;;5041962;28;20033;-65
2021/11/15 07:41:21;;;;;;;44.35;18.85;;;;;;;;;;5048663;28;20017;-64
2021/11/15 07:43:46;;;;;;;43.30;18.40;;;;;;;;;;5047937;28;20017;-64
2021/11/15 07:46:11;;;;;;;42.55;19.10;;;;;;;;;;5048028;28;20108;-65
2021/11/15 07:48:36;;;;;;;42.53;18.65;;;;;;;;;;5047493;28;20025;-66
2021/11/15 07:51:03;;;;;;;38.53;17.13;;;;;;;;;;5048764;28;20021;-66
2021/11/15 07:53:30;;;;;;;39.55;17.33;;;;;;;;;;5048687;28;20039;-65
2021/11/15 07:55:55;;;;;;;38.55;17.30;;;;;;;;;;5048493;28;20030;-64
2021/11/15 07:58:21;;;;;;;39.60;17.60;;;;;;;;;;5039974;28;20049;-65
2021/11/15 08:00:47;;;;;;;32.90;16.05;;;;;;;;;;5048343;28;20387;-63
2021/11/15 08:03:12;;;;;;;35.22;16.33;;;;;;;;;;5048872;28;20047;-65
2021/11/15 08:05:37;;;;;;;38.38;17.48;;;;;;;;;;5048756;28;20025;-64
2021/11/15 08:08:03;;;;;;;37.75;17.08;;;;;;;;;;5049499;28;20072;-65
2021/11/15 08:10:28;;;;;;;32.72;16.23;;;;;;;;;;5052327;28;20392;-63
2021/11/15 08:12:54;;;;;;;31.98;14.95;;;;;;;;;;5052512;28;20065;-64
2021/11/15 08:15:20;;;;;;;29.52;14.63;;;;;;;;;;5052580;28;20045;-64
2021/11/15 08:17:47;;;;;;;32.13;13.13;;;;;;;;;;5052388;28;20063;-64
2021/11/15 08:20:23;;;;;;;28.52;13.15;;;;;;;;;;5051465;28;20025;-64
2021/11/15 08:22:51;;;;;;;26.40;12.85;;;;;;;;;;5046395;28;20870;-64
2021/11/15 08:25:34;;;;;;;27.88;13.95;;;;;;;;;;5052166;28;20017;-64
2021/11/15 08:27:59;;;;;;;24.35;12.90;;;;;;;;;;5051947;28;20033;-65
2021/11/15 08:30:25;;;;;;;27.80;13.80;;;;;;;;;;5047923;28;20028;-64
2021/11/15 08:32:51;;;;;;;27.27;13.48;;;;;;;;;;5051894;28;20025;-64
2021/11/15 08:35:19;;;;;;;26.55;12.50;;;;;;;;;;5051846;28;20358;-64
2021/11/15 08:37:56;;;;;;;27.38;14.10;;;;;;;;;;5052048;28;20071;-64
2021/11/15 08:40:21;;;;;;;28.95;13.57;;;;;;;;;;5049801;28;20096;-65
2021/11/15 08:42:47;;;;;;;27.40;13.27;;;;;;;;;;5051709;28;20176;-64
2021/11/15 08:45:14;;;;;;;29.23;14.18;;;;;;;;;;5051967;28;20423;-64
2021/11/15 08:47:40;;;;;;;27.08;13.45;;;;;;;;;;5051762;28;20114;-64
2021/11/15 08:50:05;;;;;;;29.85;13.80;;;;;;;;;;5051574;28;20165;-64
2021/11/15 08:52:30;;;;;;;26.77;14.02;;;;;;;;;;5032030;28;20436;-64
2021/11/15 08:54:57;;;;;;;31.35;14.95;;;;;;;;;;5051458;28;20495;-64
2021/11/15 08:57:22;;;;;;;27.13;12.63;;;;;;;;;;5051790;28;20170;-64
2021/11/15 08:59:47;;;;;;;30.13;14.77;;;;;;;;;;5051264;28;20048;-64
2021/11/15 09:02:13;;;;;;;29.90;14.07;;;;;;;;;;5046573;28;20412;-63
2021/11/15 09:04:38;;;;;;;29.13;14.30;;;;;;;;;;5049619;28;20098;-64
2021/11/15 09:07:04;;;;;;;29.45;14.25;;;;;;;;;;5051894;28;20048;-65
2021/11/15 09:09:29;;;;;;;33.47;14.93;;;;;;;;;;5051086;28;20061;-63
2021/11/15 09:11:55;;;;;;;30.05;13.77;;;;;;;;;;5051084;28;20025;-64
2021/11/15 09:14:21;;;;;;;27.80;12.98;;;;;;;;;;5051038;28;20025;-64
2021/11/15 09:16:46;;;;;;;26.73;13.02;;;;;;;;;;5050611;28;20465;-65
2021/11/15 09:19:13;;;;;;;30.65;14.02;;;;;;;;;;5050593;28;20036;-64
2021/11/15 09:21:38;;;;;;;29.27;13.50;;;;;;;;;;5050855;28;20032;-64
2021/11/15 09:24:04;;;;;;;25.77;12.75;;;;;;;;;;5043316;28;20104;-64
2021/11/15 09:26:29;;;;;;;24.95;11.93;;;;;;;;;;5050957;28;20033;-64
2021/11/15 09:28:58;;;;;;;26.65;12.77;;;;;;;;;;5051080;28;20033;-64
2021/11/15 09:31:23;;;;;;;27.05;14.40;;;;;;;;;;5050619;28;20029;-64
2021/11/15 09:33:49;;;;;;;24.23;12.32;;;;;;;;;;5049013;28;20025;-64
2021/11/15 09:36:16;;;;;;;27.80;12.88;;;;;;;;;;5051225;28;20029;-64
2021/11/15 09:38:43;;;;;;;26.83;12.35;;;;;;;;;;5050686;28;20481;-64
2021/11/15 09:41:09;;;;;;;27.05;12.95;;;;;;;;;;5050897;28;20025;-64
2021/11/15 09:43:36;;;;;;;28.20;12.52;;;;;;;;;;5049728;28;20036;-64
2021/11/15 09:46:03;;;;;;;25.20;12.10;;;;;;;;;;5049675;28;20021;-64
2021/11/15 09:48:29;;;;;;;24.17;12.73;;;;;;;;;;5050863;28;20017;-64
2021/11/15 09:50:55;;;;;;;22.35;12.65;;;;;;;;;;5050382;28;20020;-64
2021/11/15 09:53:20;;;;;;;26.75;13.68;;;;;;;;;;5050576;28;20016;-65
2021/11/15 09:55:45;;;;;;;22.75;12.77;;;;;;;;;;5049784;28;20064;-65
2021/11/15 09:58:11;;;;;;;23.38;12.13;;;;;;;;;;5050380;28;20082;-64
2021/11/15 10:00:39;;;;;;;23.73;12.55;;;;;;;;;;5055361;28;20079;-63
2021/11/15 10:03:04;;;;;;;24.58;11.68;;;;;;;;;;5050430;28;20045;-64
2021/11/15 10:05:31;;;;;;;26.08;13.02;;;;;;;;;;5049216;28;20056;-64
2021/11/15 10:07:56;;;;;;;27.13;14.35;;;;;;;;;;5049974;28;20074;-64
2021/11/15 10:10:32;;;;;;;27.95;13.68;;;;;;;;;;5050023;28;20017;-64
2021/11/15 10:13:02;;;;;;;26.15;13.55;;;;;;;;;;5050671;28;20047;-66
2021/11/15 10:15:28;;;;;;;24.23;13.30;;;;;;;;;;5049856;28;20029;-64
2021/11/15 10:17:53;;;;;;;24.73;13.18;;;;;;;;;;5045838;28;20356;-64
2021/11/15 10:20:20;;;;;;;26.17;13.07;;;;;;;;;;5049443;28;20104;-64
2021/11/15 10:22:46;;;;;;;31.45;14.75;;;;;;;;;;5049524;28;20075;-64
2021/11/15 10:25:11;;;;;;;28.45;13.40;;;;;;;;;;5049854;28;20464;-63
2021/11/15 10:27:37;;;;;;;21.75;12.07;;;;;;;;;;5044580;28;20136;-64
2021/11/15 10:30:08;;;;;;;25.77;12.40;;;;;;;;;;5052191;28;20098;-64
2021/11/15 10:32:40;;;;;;;25.42;13.20;;;;;;;;;;5049638;28;20029;-63
2021/11/15 10:35:05;;;;;;;29.40;13.73;;;;;;;;;;5049875;28;20021;-63
2021/11/15 10:37:32;;;;;;;28.85;14.00;;;;;;;;;;5043598;28;20045;-64
2021/11/15 10:40:00;;;;;;;27.95;13.85;;;;;;;;;;5049688;28;20019;-63
2021/11/15 10:42:27;;;;;;;27.27;12.60;;;;;;;;;;5049671;28;20029;-65
2021/11/15 10:44:56;;;;;;;27.90;13.85;;;;;;;;;;5049483;28;20046;-64
2021/11/15 10:47:25;;;;;;;25.42;12.48;;;;;;;;;;5048662;28;20124;-64
2021/11/15 10:49:58;;;;;;;24.27;11.63;;;;;;;;;;5048559;28;20071;-64
2021/11/15 10:52:23;;;;;;;29.77;13.85;;;;;;;;;;5043768;28;20460;-64
2021/11/15 10:54:54;;;;;;;25.05;12.60;;;;;;;;;;5049530;28;20021;-65
2021/11/15 10:57:22;;;;;;;25.83;13.20;;;;;;;;;;5043413;28;20020;-64
2021/11/15 11:00:11;;;;;;;28.75;13.30;;;;;;;;;;5041419;28;21056;-64
2021/11/15 11:02:44;;;;;;;26.92;13.57;;;;;;;;;;5049413;28;20036;-64
2021/11/15 11:05:10;;;;;;;29.35;14.48;;;;;;;;;;5049213;28;20066;-63
2021/11/15 11:07:35;;;;;;;29.10;14.40;;;;;;;;;;5048945;28;20112;-64
2021/11/15 11:10:03;;;;;;;29.98;14.38;;;;;;;;;;5047772;28;20035;-63
2021/11/15 11:12:44;;;;;;;31.00;14.45;;;;;;;;;;5048972;28;20455;-63
2021/11/15 11:15:24;;;;;;;30.95;14.40;;;;;;;;;;5049144;28;20021;-64
2021/11/15 11:17:58;;;;;;;27.27;13.65;;;;;;;;;;5048952;28;20033;-63
2021/11/15 11:23:17;;;;;;;26.25;13.82;;;;;;;;;;5048614;28;20021;-64
2021/11/15 11:25:42;;;;;;;28.40;13.70;;;;;;;;;;5047150;28;20037;-64
2021/11/15 11:28:26;;;;;;;25.88;13.38;;;;;;;;;;5047481;28;20519;-64
2021/11/15 11:30:51;;;;;;;27.27;12.85;;;;;;;;;;5042468;28;20028;-63
2021/11/15 11:33:16;;;;;;;29.20;14.68;;;;;;;;;;5046249;28;20029;-63
2021/11/15 11:35:42;;;;;;;27.77;13.75;;;;;;;;;;5048613;28;20021;-64
2021/11/15 11:38:07;;;;;;;28.13;14.13;;;;;;;;;;5048093;28;20041;-65
2021/11/15 11:40:32;;;;;;;25.02;13.13;;;;;;;;;;5047771;28;20107;-63
2021/11/15 11:42:57;;;;;;;25.65;13.60;;;;;;;;;;5044621;28;20199;-63
2021/11/15 11:45:26;;;;;;;25.17;13.52;;;;;;;;;;5048327;28;20036;-64
2021/11/15 11:47:51;;;;;;;24.80;14.25;;;;;;;;;;5043792;28;20017;-63
2021/11/15 11:50:18;;;;;;;24.25;13.25;;;;;;;;;;5048022;28;20048;-63
2021/11/15 11:52:44;;;;;;;26.25;14.35;;;;;;;;;;5048256;28;20025;-65
2021/11/15 11:55:21;;;;;;;24.75;13.10;;;;;;;;;;5045854;28;20025;-63
2021/11/15 11:57:46;;;;;;;26.95;13.00;;;;;;;;;;5041284;28;20039;-64
2021/11/15 12:00:14;;;;;;;28.20;14.30;;;;;;;;;;5040658;28;20046;-64
2021/11/15 12:02:40;;;;;;;26.40;13.35;;;;;;;;;;5033352;28;20013;-64
2021/11/15 12:05:11;;;;;;;29.58;14.45;;;;;;;;;;5044698;28;20025;-64
2021/11/15 12:07:37;;;;;;;29.98;14.40;;;;;;;;;;5040236;28;20017;-64
2021/11/15 12:10:04;;;;;;;24.98;12.88;;;;;;;;;;5042847;28;20066;-64
2021/11/15 12:12:49;;;;;;;27.33;13.40;;;;;;;;;;5038642;28;20098;-62
2021/11/15 12:15:33;;;;;;;26.98;13.35;;;;;;;;;;5042098;28;20016;-65
2021/11/15 12:18:05;;;;;;;23.88;12.75;;;;;;;;;;5043279;28;20075;-63
2021/11/15 12:20:30;;;;;;;23.38;13.30;;;;;;;;;;5037327;28;20010;-64
2021/11/15 12:22:57;;;;;;;27.52;13.95;;;;;;;;;;5043602;28;20362;-64
2021/11/15 12:25:25;;;;;;;30.90;14.85;;;;;;;;;;5036895;28;20051;-63
2021/11/15 12:28:00;;;;;;;29.88;14.90;;;;;;;;;;5045625;28;20017;-64
2021/11/15 12:30:34;;;;;;;26.02;13.77;;;;;;;;;;5044231;28;20021;-64
2021/11/15 12:33:19;;;;;;;30.63;15.18;;;;;;;;;;5045975;28;20032;-63
2021/11/15 12:36:02;;;;;;;23.73;13.43;;;;;;;;;;5041948;28;20041;-64
2021/11/15 12:38:30;;;;;;;25.60;14.07;;;;;;;;;;5044754;28;20037;-64
2021/11/15 12:40:56;;;;;;;24.42;13.77;;;;;;;;;;5043113;28;20068;-64
2021/11/15 12:43:21;;;;;;;28.15;14.77;;;;;;;;;;5038902;28;20044;-65
2021/11/15 12:45:50;;;;;;;23.40;12.60;;;;;;;;;;5032942;28;20159;-65
2021/11/15 12:48:32;;;;;;;25.58;13.63;;;;;;;;;;5043546;28;20029;-65
2021/11/15 12:50:57;;;;;;;27.05;14.30;;;;;;;;;;5037150;28;20116;-64
2021/11/15 12:53:23;;;;;;;29.45;14.70;;;;;;;;;;5045173;28;20139;-64
2021/11/15 12:55:48;;;;;;;30.00;15.05;;;;;;;;;;5045784;28;20048;-65
2021/11/15 12:58:14;;;;;;;27.17;13.95;;;;;;;;;;5048658;28;20535;-64
2021/11/15 13:00:40;;;;;;;30.20;14.07;;;;;;;;;;5049664;28;20527;-64
2021/11/15 13:03:06;;;;;;;27.02;14.00;;;;;;;;;;5050567;28;20021;-65
2021/11/15 13:05:33;;;;;;;24.02;13.05;;;;;;;;;;5045318;28;20074;-64
2021/11/15 13:08:01;;;;;;;27.10;13.63;;;;;;;;;;5050484;28;20044;-65
2021/11/15 13:10:26;;;;;;;26.40;14.55;;;;;;;;;;5038234;28;20564;-65
2021/11/15 13:12:53;;;;;;;23.88;13.18;;;;;;;;;;5040357;28;20045;-64
2021/11/15 13:15:18;;;;;;;25.75;13.82;;;;;;;;;;5040634;28;20056;-64
2021/11/15 13:17:45;;;;;;;24.33;12.82;;;;;;;;;;5039740;28;20064;-65
2021/11/15 13:20:12;;;;;;;28.20;15.52;;;;;;;;;;5041072;28;20025;-64
2021/11/15 13:22:38;;;;;;;27.55;14.90;;;;;;;;;;5044066;28;20094;-64
2021/11/15 13:25:04;;;;;;;26.45;13.77;;;;;;;;;;5039474;28;20033;-64
2021/11/15 13:27:29;;;;;;;26.17;13.35;;;;;;;;;;5045072;28;20104;-65
2021/11/15 13:29:55;;;;;;;28.00;14.15;;;;;;;;;;5048161;28;20116;-65
2021/11/15 13:32:21;;;;;;;25.30;13.50;;;;;;;;;;5044090;28;20358;-64
2021/11/15 13:34:48;;;;;;;28.27;13.75;;;;;;;;;;5048583;28;20353;-64
2021/11/15 13:37:14;;;;;;;27.70;14.10;;;;;;;;;;5046999;28;20033;-64
2021/11/15 13:39:40;;;;;;;28.20;13.38;;;;;;;;;;5048283;28;20032;-64
2021/11/15 13:42:06;;;;;;;25.05;13.50;;;;;;;;;;5040403;28;20405;-64
2021/11/15 13:44:31;;;;;;;30.23;14.40;;;;;;;;;;5048550;28;20123;-63
2021/11/15 13:46:57;;;;;;;27.73;13.93;;;;;;;;;;5046606;28;20112;-64
2021/11/15 13:49:22;;;;;;;27.48;14.45;;;;;;;;;;5043441;28;20024;-63
2021/11/15 13:51:47;;;;;;;30.63;15.30;;;;;;;;;;5049428;28;20029;-62
2021/11/15 13:54:13;;;;;;;27.83;13.70;;;;;;;;;;5049353;28;20488;-64
2021/11/15 13:56:38;;;;;;;26.42;13.95;;;;;;;;;;5046139;28;20067;-63
2021/11/15 13:59:03;;;;;;;24.20;13.23;;;;;;;;;;5046702;28;20045;-63
2021/11/15 14:01:29;;;;;;;26.17;13.18;;;;;;;;;;5046641;28;20021;-64
2021/11/15 14:03:54;;;;;;;25.48;13.93;;;;;;;;;;5048879;28;20484;-64
2021/11/15 14:06:19;;;;;;;27.92;13.70;;;;;;;;;;5038376;28;20018;-63
2021/11/15 14:08:44;;;;;;;25.52;14.13;;;;;;;;;;5044412;28;20035;-63
2021/11/15 14:11:10;;;;;;;26.30;13.30;;;;;;;;;;5049986;28;20104;-64
2021/11/15 14:13:35;;;;;;;24.98;13.45;;;;;;;;;;5046157;28;20025;-64
2021/11/15 14:16:01;;;;;;;27.42;13.43;;;;;;;;;;5044609;28;20021;-64